createdAt,value
2023-05-06T00:01:24.221Z,6.05
2023-05-06T00:03:51.668Z,6.90
2023-05-06T00:06:18.178Z,6.32
2023-05-06T00:08:45.853Z,6.80
2023-05-06T00:11:13.572Z,6.93
2023-05-06T00:13:39.974Z,6.53
2023-05-06T00:16:06.544Z,6.35
2023-05-06T00:18:33.026Z,6.40
2023-05-06T00:20:59.514Z,7.72
2023-05-06T00:23:25.899Z,8.38
2023-05-06T00:25:54.040Z,7.18
2023-05-06T00:28:20.408Z,7.93
2023-05-06T00:30:46.800Z,8.18
2023-05-06T00:33:13.184Z,7.32
2023-05-06T00:35:39.608Z,7.95
2023-05-06T00:38:09.247Z,8.20
2023-05-06T00:40:36.446Z,8.68
2023-05-06T00:43:03.463Z,8.80
2023-05-06T00:45:30.575Z,8.65
2023-05-06T00:47:57.952Z,9.57
2023-05-06T00:50:24.763Z,8.35
2023-05-06T00:52:51.704Z,8.23
2023-05-06T00:55:18.215Z,8.30
2023-05-06T00:57:44.720Z,8.27
2023-05-06T01:00:11.659Z,7.85
2023-05-06T01:02:46.528Z,8.18
2023-05-06T01:05:16.305Z,7.47
2023-05-06T01:08:09.978Z,8.50
2023-05-06T01:10:49.925Z,7.55
2023-05-06T01:13:42.836Z,7.63
2023-05-06T01:16:12.616Z,8.55
2023-05-06T01:18:39.885Z,8.35
2023-05-06T01:21:07.737Z,8.23
2023-05-06T01:24:06.595Z,8.50
2023-05-06T01:26:33.040Z,6.50
2023-05-06T01:29:01.857Z,6.78
2023-05-06T01:31:45.476Z,7.20
2023-05-06T01:34:20.927Z,6.30
2023-05-06T01:37:05.561Z,6.80
2023-05-06T01:39:33.080Z,7.80
2023-05-06T01:42:01.971Z,6.53
2023-05-06T01:44:33.757Z,6.28
2023-05-06T01:47:01.105Z,7.10
2023-05-06T01:52:18.612Z,6.60
2023-05-06T01:54:45.398Z,6.55
2023-05-06T01:57:18.980Z,6.95
2023-05-06T01:59:45.537Z,6.32
2023-05-06T02:02:12.114Z,7.25
2023-05-06T02:04:38.963Z,6.68
2023-05-06T02:07:05.728Z,6.72
2023-05-06T02:09:32.161Z,5.93
2023-05-06T02:11:58.610Z,6.55
2023-05-06T02:14:25.029Z,5.68
2023-05-06T02:16:51.588Z,5.70
2023-05-06T02:19:17.971Z,5.85
2023-05-06T02:21:44.588Z,5.82
2023-05-06T02:24:11.047Z,5.60
2023-05-06T02:26:37.539Z,6.07
2023-05-06T02:29:04.024Z,5.72
2023-05-06T02:31:31.942Z,6.05
2023-05-06T02:33:58.369Z,5.30
2023-05-06T02:36:24.879Z,5.65
2023-05-06T02:38:51.292Z,5.57
2023-05-06T02:41:17.739Z,6.45
2023-05-06T02:43:44.188Z,8.23
2023-05-06T02:46:11.746Z,7.18
2023-05-06T02:48:38.141Z,6.97
2023-05-06T02:51:05.598Z,6.93
2023-05-06T02:53:32.314Z,6.97
2023-05-06T02:55:58.971Z,7.30
2023-05-06T02:58:26.144Z,5.72
2023-05-06T03:00:52.702Z,7.20
2023-05-06T03:03:19.104Z,7.07
2023-05-06T03:05:45.717Z,7.03
2023-05-06T03:08:12.113Z,7.45
2023-05-06T03:10:38.786Z,7.18
2023-05-06T03:13:05.612Z,5.53
2023-05-06T03:15:32.176Z,5.97
2023-05-06T03:17:59.222Z,7.20
2023-05-06T03:20:25.710Z,7.60
2023-05-06T03:22:52.641Z,7.35
2023-05-06T03:25:19.020Z,8.07
2023-05-06T03:27:45.586Z,7.28
2023-05-06T03:30:12.456Z,7.50
2023-05-06T03:32:39.098Z,7.13
2023-05-06T03:35:07.361Z,7.03
2023-05-06T03:37:34.501Z,7.43
2023-05-06T03:40:03.580Z,6.63
2023-05-06T03:42:31.121Z,8.07
2023-05-06T03:44:57.504Z,7.50
2023-05-06T03:47:24.272Z,6.15
2023-05-06T03:49:51.130Z,5.70
2023-05-06T03:52:18.080Z,6.75
2023-05-06T03:54:44.684Z,5.70
2023-05-06T03:57:11.067Z,5.60
2023-05-06T03:59:37.950Z,5.40
2023-05-06T04:02:05.572Z,5.03
2023-05-06T04:04:31.975Z,5.15
2023-05-06T04:06:58.590Z,4.70
2023-05-06T04:09:25.641Z,4.47
2023-05-06T04:11:52.152Z,4.63
2023-05-06T04:14:19.125Z,4.85
2023-05-06T04:16:45.644Z,4.65
2023-05-06T04:19:12.707Z,5.25
2023-05-06T04:21:39.523Z,4.70
2023-05-06T04:24:06.400Z,5.72
2023-05-06T04:26:33.343Z,5.00
2023-05-06T04:28:59.931Z,5.78
2023-05-06T04:31:29.605Z,5.20
2023-05-06T04:33:56.069Z,4.93
2023-05-06T04:36:23.033Z,4.72
2023-05-06T04:38:49.424Z,5.22
2023-05-06T04:41:15.913Z,4.28
2023-05-06T04:43:42.384Z,5.95
2023-05-06T04:46:08.896Z,5.22
2023-05-06T04:48:35.524Z,5.15
2023-05-06T04:51:04.217Z,4.85
2023-05-06T04:53:31.741Z,4.20
2023-05-06T04:55:58.152Z,4.50
2023-05-06T04:58:24.639Z,4.43
2023-05-06T05:00:51.661Z,3.80
2023-05-06T05:03:18.201Z,4.40
2023-05-06T05:05:45.061Z,3.35
2023-05-06T05:08:13.256Z,3.60
2023-05-06T05:10:45.831Z,3.67
2023-05-06T05:13:12.930Z,3.08
2023-05-06T05:15:40.065Z,2.85
2023-05-06T05:18:06.732Z,2.53
2023-05-06T05:20:33.617Z,2.20
2023-05-06T05:23:00.491Z,2.50
2023-05-06T05:25:27.330Z,2.08
2023-05-06T05:27:53.705Z,2.15
2023-05-06T05:30:20.660Z,2.33
2023-05-06T05:32:47.337Z,2.17
2023-05-06T05:35:13.769Z,2.20
2023-05-06T05:37:40.345Z,1.75
2023-05-06T05:40:07.212Z,1.90
2023-05-06T05:42:34.097Z,2.35
2023-05-06T05:45:00.615Z,1.95
2023-05-06T05:47:27.245Z,2.50
2023-05-06T05:49:54.250Z,2.30
2023-05-06T05:52:20.889Z,2.63
2023-05-06T05:54:47.697Z,2.60
2023-05-06T05:57:14.263Z,2.35
2023-05-06T05:59:41.149Z,2.55
2023-05-06T06:02:07.547Z,2.85
2023-05-06T06:04:35.160Z,3.15
2023-05-06T06:07:02.156Z,3.00
2023-05-06T06:09:28.770Z,3.03
2023-05-06T06:11:55.438Z,3.65
2023-05-06T06:14:21.902Z,3.00
2023-05-06T06:16:48.635Z,3.13
2023-05-06T06:19:15.794Z,3.05
2023-05-06T06:21:42.418Z,2.97
2023-05-06T06:24:09.069Z,3.22
2023-05-06T06:26:35.877Z,3.30
2023-05-06T06:29:02.304Z,3.30
2023-05-06T06:31:29.418Z,3.20
2023-05-06T06:33:56.035Z,3.65
2023-05-06T06:36:22.435Z,3.17
2023-05-06T06:38:49.028Z,3.95
2023-05-06T06:41:15.420Z,4.07
2023-05-06T06:43:42.188Z,4.28
2023-05-06T06:46:08.801Z,4.28
2023-05-06T06:48:35.839Z,4.32
2023-05-06T06:51:02.694Z,4.13
2023-05-06T06:53:29.113Z,3.95
2023-05-06T06:55:55.707Z,5.03
2023-05-06T06:58:22.182Z,4.32
2023-05-06T07:00:48.608Z,4.65
2023-05-06T07:03:19.445Z,4.80
2023-05-06T07:05:46.576Z,4.55
2023-05-06T07:08:12.971Z,4.70
2023-05-06T07:10:39.514Z,3.67
2023-05-06T07:13:05.912Z,4.20
2023-05-06T07:15:32.333Z,3.92
2023-05-06T07:17:58.933Z,4.10
2023-05-06T07:20:25.645Z,4.40
2023-05-06T07:22:52.777Z,3.95
2023-05-06T07:25:19.347Z,4.32
2023-05-06T07:27:45.875Z,3.97
2023-05-06T07:30:12.614Z,4.10
2023-05-06T07:32:40.955Z,3.70
2023-05-06T07:35:08.710Z,4.10
2023-05-06T07:37:35.583Z,4.07
2023-05-06T07:40:03.253Z,3.75
2023-05-06T07:42:29.684Z,3.90
2023-05-06T07:44:57.205Z,4.05
2023-05-06T07:47:31.747Z,4.00
2023-05-06T07:50:00.364Z,3.30
2023-05-06T07:52:27.561Z,3.38
2023-05-06T07:54:54.203Z,3.05
2023-05-06T07:57:20.899Z,3.10
2023-05-06T07:59:48.609Z,3.22
2023-05-06T08:02:15.392Z,3.22
2023-05-06T08:04:42.790Z,3.28
2023-05-06T08:07:10.744Z,2.92
2023-05-06T08:09:37.740Z,2.70
2023-05-06T08:12:04.426Z,3.05
2023-05-06T08:14:31.268Z,3.03
2023-05-06T08:16:57.675Z,2.88
2023-05-06T08:19:24.459Z,2.67
2023-05-06T08:21:51.432Z,2.70
2023-05-06T08:24:17.963Z,1.75
2023-05-06T08:26:44.361Z,1.42
2023-05-06T08:29:10.841Z,1.60
2023-05-06T08:31:37.268Z,2.30
2023-05-06T08:34:03.893Z,2.35
2023-05-06T08:36:30.934Z,1.42
2023-05-06T08:38:57.413Z,1.40
2023-05-06T08:41:26.251Z,1.70
2023-05-06T08:43:55.356Z,1.40
2023-05-06T08:46:22.804Z,1.50
2023-05-06T08:48:49.657Z,1.42
2023-05-06T08:51:16.774Z,1.50
2023-05-06T08:53:48.424Z,2.00
2023-05-06T08:56:16.985Z,2.05
2023-05-06T08:58:46.488Z,2.10
2023-05-06T09:01:14.720Z,1.77
2023-05-06T09:03:41.397Z,1.30
2023-05-06T09:06:08.035Z,1.20
2023-05-06T09:08:34.677Z,1.30
2023-05-06T09:11:01.114Z,1.38
2023-05-06T09:13:27.728Z,1.13
2023-05-06T09:15:55.226Z,1.10
2023-05-06T09:18:22.402Z,1.20
2023-05-06T09:20:50.494Z,1.00
2023-05-06T09:23:18.002Z,1.13
2023-05-06T09:25:46.518Z,1.27
2023-05-06T09:28:13.989Z,1.30
2023-05-06T09:30:41.750Z,1.30
2023-05-06T09:33:09.561Z,1.63
2023-05-06T09:35:41.267Z,1.33
2023-05-06T09:38:08.328Z,1.30
2023-05-06T09:40:39.140Z,1.20
2023-05-06T09:43:06.239Z,1.10
2023-05-06T09:45:33.396Z,1.02
2023-05-06T09:48:01.066Z,1.13
2023-05-06T09:50:28.069Z,1.20
2023-05-06T09:52:56.071Z,0.90
2023-05-06T09:55:26.457Z,1.10
2023-05-06T09:57:53.321Z,1.00
2023-05-06T10:00:26.889Z,0.90
2023-05-06T10:02:54.991Z,1.00
2023-05-06T10:05:22.805Z,0.85
2023-05-06T10:07:52.492Z,0.70
2023-05-06T10:10:19.000Z,0.85
2023-05-06T10:12:46.344Z,0.90
2023-05-06T10:15:13.033Z,0.93
2023-05-06T10:17:41.598Z,0.70
2023-05-06T10:20:09.538Z,1.23
2023-05-06T10:23:03.828Z,0.90
2023-05-06T10:25:36.385Z,1.00
2023-05-06T10:28:17.689Z,0.60
2023-05-06T10:30:58.028Z,0.70
2023-05-06T10:33:26.464Z,0.85
2023-05-06T10:36:03.228Z,0.80
2023-05-06T10:38:49.263Z,1.40
2023-05-06T10:41:16.820Z,0.88
2023-05-06T10:43:44.060Z,0.82
2023-05-06T10:46:15.629Z,0.70
2023-05-06T10:49:08.378Z,0.80
2023-05-06T10:51:36.283Z,1.08
2023-05-06T10:54:23.441Z,0.80
2023-05-06T10:56:49.806Z,0.80
2023-05-06T10:59:22.348Z,1.00
2023-05-06T11:02:08.181Z,0.88
2023-05-06T11:04:34.760Z,0.70
2023-05-06T11:07:15.526Z,0.70
2023-05-06T11:10:02.222Z,0.90
2023-05-06T11:12:47.481Z,0.93
2023-05-06T11:17:57.417Z,0.80
2023-05-06T11:20:26.572Z,0.80
2023-05-06T11:22:54.213Z,1.10
2023-05-06T11:28:25.377Z,1.00
2023-05-06T11:30:55.376Z,0.82
2023-05-06T11:33:23.999Z,0.70
2023-05-06T11:35:50.716Z,0.77
2023-05-06T11:38:17.142Z,0.90
2023-05-06T11:40:44.218Z,1.90
2023-05-06T11:43:15.098Z,1.00
2023-05-06T11:45:47.080Z,0.80
2023-05-06T11:48:14.874Z,0.88
2023-05-06T11:50:48.942Z,0.60
2023-05-06T11:53:21.047Z,0.97
2023-05-06T11:55:49.564Z,1.10
2023-05-06T11:58:18.901Z,0.98
2023-05-06T12:00:58.744Z,0.85
2023-05-06T12:03:27.411Z,0.80
2023-05-06T12:05:55.643Z,1.00
2023-05-06T12:08:33.106Z,0.80
2023-05-06T12:11:04.637Z,1.98
2023-05-06T12:13:31.317Z,1.20
2023-05-06T12:15:59.599Z,1.08
2023-05-06T12:18:26.588Z,1.00
2023-05-06T12:20:54.644Z,0.90
2023-05-06T12:23:24.789Z,0.82
2023-05-06T12:26:06.627Z,1.17
2023-05-06T12:28:36.644Z,1.30
2023-05-06T12:31:20.154Z,0.98
2023-05-06T12:33:49.668Z,0.98
2023-05-06T12:36:18.033Z,0.80
2023-05-06T12:38:56.174Z,0.98
2023-05-06T12:41:42.989Z,1.02
2023-05-06T12:44:34.909Z,0.70
2023-05-06T12:47:04.775Z,0.90
2023-05-06T12:50:04.272Z,1.10
2023-05-06T12:52:30.857Z,0.80
2023-05-06T12:54:57.683Z,0.80
2023-05-06T12:57:24.215Z,0.90
2023-05-06T12:59:50.666Z,1.00
2023-05-06T13:02:18.897Z,0.90
2023-05-06T13:04:46.694Z,0.80
2023-05-06T13:07:13.307Z,0.70
2023-05-06T13:09:39.728Z,1.73
2023-05-06T13:12:07.540Z,1.60
2023-05-06T13:14:34.082Z,1.77
2023-05-06T13:17:01.480Z,1.25
2023-05-06T13:19:32.977Z,1.70
2023-05-06T13:22:00.402Z,2.10
2023-05-06T13:24:27.409Z,1.45
2023-05-06T13:26:53.897Z,1.45
2023-05-06T13:29:20.631Z,2.90
2023-05-06T13:31:47.536Z,3.03
2023-05-06T13:34:13.956Z,1.40
2023-05-06T13:36:40.373Z,1.15
2023-05-06T13:39:06.831Z,0.80
2023-05-06T13:41:33.201Z,0.90
2023-05-06T13:44:00.020Z,1.00
2023-05-06T13:46:29.454Z,0.68
2023-05-06T13:48:55.953Z,0.90
2023-05-06T13:51:22.522Z,0.98
2023-05-06T13:53:49.149Z,0.90
2023-05-06T13:56:15.872Z,0.90
2023-05-06T13:58:42.260Z,1.00
2023-05-06T14:01:08.935Z,1.00
2023-05-06T14:03:35.340Z,1.02
2023-05-06T14:06:02.046Z,0.68
2023-05-06T14:08:28.537Z,1.00
2023-05-06T14:10:55.378Z,0.90
2023-05-06T14:13:22.117Z,0.80
2023-05-06T14:15:48.601Z,1.00
2023-05-06T14:18:16.024Z,0.85
2023-05-06T14:20:42.479Z,0.90
2023-05-06T14:23:09.421Z,0.80
2023-05-06T14:25:35.933Z,0.82
2023-05-06T14:28:02.809Z,0.70
2023-05-06T14:30:29.902Z,0.90
2023-05-06T14:32:57.650Z,0.70
2023-05-06T14:35:24.360Z,0.80
2023-05-06T14:37:51.072Z,0.85
2023-05-06T14:40:17.873Z,1.00
2023-05-06T14:42:45.809Z,0.70
2023-05-06T14:45:13.871Z,0.95
2023-05-06T14:47:40.633Z,0.90
2023-05-06T14:50:09.310Z,0.85
2023-05-06T14:52:36.643Z,0.70
2023-05-06T14:55:04.316Z,1.10
2023-05-06T14:57:30.714Z,0.70
2023-05-06T14:59:59.009Z,0.80
2023-05-06T15:02:25.914Z,0.88
2023-05-06T15:04:52.334Z,0.82
2023-05-06T15:07:18.920Z,0.77
2023-05-06T15:09:45.477Z,0.80
2023-05-06T15:12:12.319Z,0.80
2023-05-06T15:14:39.849Z,0.73
2023-05-06T15:17:06.571Z,0.80
2023-05-06T15:19:33.790Z,0.80
2023-05-06T15:22:00.748Z,1.00
2023-05-06T15:24:27.180Z,0.80
2023-05-06T15:26:54.432Z,0.80
2023-05-06T15:29:21.200Z,1.58
2023-05-06T15:31:47.901Z,0.75
2023-05-06T15:34:14.448Z,0.70
2023-05-06T15:36:42.026Z,0.70
2023-05-06T15:39:08.658Z,0.80
2023-05-06T15:41:39.011Z,1.13
2023-05-06T15:44:06.121Z,0.80
2023-05-06T15:46:33.070Z,0.80
2023-05-06T15:49:20.936Z,0.90
2023-05-06T15:51:46.389Z,1.10
2023-05-06T15:54:13.375Z,1.02
2023-05-06T15:56:41.547Z,1.02
2023-05-06T15:59:08.800Z,0.93
2023-05-06T16:01:54.036Z,1.13
2023-05-06T16:04:22.413Z,0.98
2023-05-06T16:06:49.649Z,1.10
2023-05-06T16:09:17.181Z,1.20
2023-05-06T16:11:43.620Z,1.20
2023-05-06T16:14:10.269Z,0.90
2023-05-06T16:16:36.774Z,1.10
2023-05-06T16:19:03.843Z,1.33
2023-05-06T16:21:30.210Z,1.20
2023-05-06T16:23:56.680Z,1.35
2023-05-06T16:26:23.545Z,1.23
2023-05-06T16:28:49.972Z,1.10
2023-05-06T16:31:17.054Z,1.30
2023-05-06T16:33:43.570Z,1.20
2023-05-06T16:36:10.339Z,1.02
2023-05-06T16:38:36.941Z,1.65
2023-05-06T16:41:03.418Z,1.38
2023-05-06T16:43:30.217Z,1.10
2023-05-06T16:45:56.620Z,1.10
2023-05-06T16:48:23.231Z,1.35
2023-05-06T16:50:49.872Z,1.30
2023-05-06T16:53:17.268Z,1.30
2023-05-06T16:55:49.109Z,1.45
2023-05-06T16:58:15.961Z,1.02
2023-05-06T17:00:42.799Z,1.20
2023-05-06T17:03:09.509Z,1.40
2023-05-06T17:05:36.951Z,1.45
2023-05-06T17:08:03.951Z,1.00
2023-05-06T17:10:30.390Z,1.27
2023-05-06T17:12:57.192Z,1.25
2023-05-06T17:15:24.776Z,1.50
2023-05-06T17:17:51.738Z,1.20
2023-05-06T17:20:19.869Z,1.30
2023-05-06T17:22:47.169Z,1.27
2023-05-06T17:25:13.898Z,1.30
2023-05-06T17:27:41.312Z,1.23
2023-05-06T17:30:11.865Z,1.20
2023-05-06T17:32:39.027Z,1.80
2023-05-06T17:35:06.302Z,1.63
2023-05-06T17:37:33.870Z,1.45
2023-05-06T17:40:00.585Z,1.20
2023-05-06T17:42:29.776Z,1.00
2023-05-06T17:44:56.877Z,1.20
2023-05-06T17:47:23.385Z,1.10
2023-05-06T17:49:53.673Z,1.00
2023-05-06T17:52:20.688Z,1.13
2023-05-06T17:55:01.455Z,1.20
2023-05-06T17:57:37.076Z,1.17
2023-05-06T18:00:04.096Z,1.20
2023-05-06T18:02:30.664Z,1.10
2023-05-06T18:04:57.667Z,1.25
2023-05-06T18:07:24.078Z,1.33
2023-05-06T18:09:52.040Z,1.30
2023-05-06T18:12:19.482Z,1.23
2023-05-06T18:14:46.080Z,1.80
2023-05-06T18:17:12.471Z,1.23
2023-05-06T18:19:39.510Z,1.67
2023-05-06T18:22:05.901Z,1.98
2023-05-06T18:24:32.564Z,1.50
2023-05-06T18:26:58.964Z,1.60
2023-05-06T18:29:27.936Z,1.58
2023-05-06T18:31:54.337Z,1.38
2023-05-06T18:34:20.941Z,1.23
2023-05-06T18:36:47.369Z,1.40
2023-05-06T18:39:14.127Z,1.15
2023-05-06T18:41:41.271Z,1.45
2023-05-06T18:44:07.683Z,1.27
2023-05-06T18:46:34.438Z,1.35
2023-05-06T18:49:00.964Z,1.48
2023-05-06T18:51:28.056Z,1.15
2023-05-06T18:53:54.497Z,1.23
2023-05-06T18:56:23.355Z,1.30
2023-05-06T18:58:49.862Z,1.33
2023-05-06T19:01:17.016Z,1.50
2023-05-06T19:03:43.604Z,1.30
2023-05-06T19:06:11.935Z,1.70
2023-05-06T19:08:38.763Z,1.30
2023-05-06T19:11:05.880Z,1.20
2023-05-06T19:13:32.370Z,1.40
2023-05-06T19:16:00.326Z,1.30
2023-05-06T19:18:26.886Z,1.65
2023-05-06T19:20:55.251Z,1.67
2023-05-06T19:23:21.794Z,1.85
2023-05-06T19:25:48.256Z,1.75
2023-05-06T19:28:14.766Z,1.67
2023-05-06T19:30:41.594Z,2.00
2023-05-06T19:33:08.205Z,1.65
2023-05-06T19:35:38.032Z,2.03
2023-05-06T19:38:06.063Z,1.90
2023-05-06T19:40:34.506Z,2.00
2023-05-06T19:43:04.196Z,2.08
2023-05-06T19:45:31.418Z,2.10
2023-05-06T19:47:58.768Z,1.85
2023-05-06T19:50:27.410Z,2.00
2023-05-06T19:52:53.988Z,2.03
2023-05-06T19:55:20.674Z,1.70
2023-05-06T19:57:47.535Z,1.80
2023-05-06T20:00:18.028Z,1.70
2023-05-06T20:02:44.938Z,1.88
2023-05-06T20:05:11.977Z,2.35
2023-05-06T20:07:39.066Z,2.00
2023-05-06T20:10:06.201Z,2.00
2023-05-06T20:12:33.382Z,1.80
2023-05-06T20:14:59.817Z,2.00
2023-05-06T20:17:26.749Z,1.65
2023-05-06T20:19:58.250Z,2.05
2023-05-06T20:22:25.218Z,1.67
2023-05-06T20:24:52.992Z,1.80
2023-05-06T20:27:22.814Z,1.90
2023-05-06T20:29:51.523Z,1.67
2023-05-06T20:32:18.013Z,1.58
2023-05-06T20:34:45.662Z,2.00
2023-05-06T20:37:12.054Z,1.75
2023-05-06T20:39:38.453Z,1.73
2023-05-06T20:42:05.162Z,1.80
2023-05-06T20:44:31.720Z,2.08
2023-05-06T20:46:58.110Z,2.20
2023-05-06T20:49:24.544Z,2.10
2023-05-06T20:51:52.131Z,1.85
2023-05-06T20:54:18.548Z,1.48
2023-05-06T20:56:45.298Z,1.63
2023-05-06T20:59:11.766Z,1.70
2023-05-06T21:01:38.430Z,1.80
2023-05-06T21:04:06.197Z,1.60
2023-05-06T21:06:32.673Z,1.73
2023-05-06T21:08:59.606Z,1.60
2023-05-06T21:11:28.658Z,1.58
2023-05-06T21:13:55.534Z,1.50
2023-05-06T21:16:22.240Z,1.33
2023-05-06T21:18:48.851Z,1.60
2023-05-06T21:21:15.753Z,1.38
2023-05-06T21:23:42.157Z,1.23
2023-05-06T21:26:08.833Z,1.20
2023-05-06T21:28:35.201Z,1.30
2023-05-06T21:31:03.465Z,1.40
2023-05-06T21:33:30.572Z,1.50
2023-05-06T21:35:57.192Z,1.42
2023-05-06T21:38:24.577Z,1.70
2023-05-06T21:40:51.033Z,1.60
2023-05-06T21:43:17.989Z,1.63
2023-05-06T21:45:44.663Z,1.65
2023-05-06T21:48:11.627Z,1.55
2023-05-06T21:50:38.581Z,1.52
2023-05-06T21:53:05.320Z,1.60
2023-05-06T21:55:32.442Z,1.38
2023-05-06T21:57:58.860Z,1.55
2023-05-06T22:00:25.762Z,1.60
2023-05-06T22:02:53.132Z,1.50
2023-05-06T22:05:20.259Z,1.48
2023-05-06T22:07:46.710Z,1.35
2023-05-06T22:10:13.651Z,1.20
2023-05-06T22:12:40.191Z,1.70
2023-05-06T22:15:09.182Z,1.20
2023-05-06T22:17:36.537Z,1.40
2023-05-06T22:20:04.312Z,1.55
2023-05-06T22:22:31.258Z,1.50
2023-05-06T22:24:57.672Z,1.50
2023-05-06T22:27:24.550Z,1.65
2023-05-06T22:29:50.933Z,1.92
2023-05-06T22:32:17.940Z,1.52
2023-05-06T22:34:44.728Z,1.40
2023-05-06T22:37:11.271Z,1.70
2023-05-06T22:39:38.017Z,1.40
2023-05-06T22:42:04.863Z,2.03
2023-05-06T22:44:31.672Z,1.67
2023-05-06T22:46:58.060Z,1.77
2023-05-06T22:49:28.783Z,1.38
2023-05-06T22:51:56.238Z,1.38
2023-05-06T22:54:24.358Z,2.30
2023-05-06T22:56:51.149Z,1.77
2023-05-06T22:59:17.709Z,2.17
2023-05-06T23:01:44.173Z,2.00
2023-05-06T23:04:11.101Z,2.17
2023-05-06T23:06:40.151Z,2.50
2023-05-06T23:09:07.686Z,2.22
2023-05-06T23:11:34.816Z,2.70
2023-05-06T23:14:01.853Z,2.40
2023-05-06T23:16:29.457Z,2.65
2023-05-06T23:18:59.028Z,3.10
2023-05-06T23:21:26.831Z,3.67
2023-05-06T23:23:53.627Z,3.22
2023-05-06T23:26:20.673Z,3.85
2023-05-06T23:28:47.447Z,3.42
2023-05-06T23:31:15.170Z,3.53
2023-05-06T23:33:41.843Z,4.32
2023-05-06T23:36:08.586Z,4.25
2023-05-06T23:38:35.629Z,4.13
2023-05-06T23:41:02.178Z,4.20
2023-05-06T23:43:28.660Z,3.60
2023-05-06T23:45:55.747Z,4.45
2023-05-06T23:48:22.144Z,4.15
2023-05-06T23:50:48.987Z,3.38
2023-05-06T23:53:15.562Z,3.38
2023-05-06T23:55:42.813Z,3.47
2023-05-06T23:58:09.836Z,3.22
